Time;durP1;ratioP1;P1;durP2;ratioP2;P2;SDS_P1;SDS_P2;PMS_P1;PMS_P2;Temp;Humidity;BMP_temperature;BMP_pressure;BME280_temperature;BME280_humidity;BME280_pressure;Samples;Min_cycle;Max_cycle;Signal;HPM_P1;HPM_P2
2020/12/08 00:02:13;;;;;;;16.90;11.63;;;4.40;99.90;;;;;;5092460;28;20056;-61
2020/12/08 00:04:40;;;;;;;16.20;10.48;;;4.30;99.90;;;;;;5094289;28;20087;-61
2020/12/08 00:07:06;;;;;;;19.60;10.35;;;4.30;99.90;;;;;;5093884;28;20035;-59
2020/12/08 00:09:32;;;;;;;19.30;11.77;;;4.30;99.90;;;;;;5091905;28;20035;-59
2020/12/08 00:11:58;;;;;;;15.63;10.52;;;4.20;99.90;;;;;;5090767;28;20114;-61
2020/12/08 00:14:24;;;;;;;15.77;10.52;;;4.30;99.90;;;;;;5092760;28;20028;-59
2020/12/08 00:16:49;;;;;;;16.33;10.10;;;4.20;99.90;;;;;;5092184;28;20081;-62
2020/12/08 00:19:15;;;;;;;15.65;9.32;;;4.10;99.90;;;;;;5092499;28;20110;-59
2020/12/08 00:21:43;;;;;;;16.20;10.35;;;4.10;99.90;;;;;;5092626;28;20074;-59
2020/12/08 00:24:09;;;;;;;16.02;11.40;;;4.00;99.90;;;;;;5090433;28;20028;-59
2020/12/08 00:26:36;;;;;;;15.38;9.60;;;4.10;99.90;;;;;;5091154;28;20039;-60
2020/12/08 00:29:03;;;;;;;15.50;10.13;;;4.10;99.90;;;;;;5091571;28;20020;-59
2020/12/08 00:31:29;;;;;;;14.55;9.43;;;3.90;99.90;;;;;;5092489;28;20043;-59
2020/12/08 00:33:55;;;;;;;12.25;8.35;;;3.90;99.90;;;;;;5090226;28;20028;-60
2020/12/08 00:36:21;;;;;;;19.55;9.32;;;3.90;99.90;;;;;;5090496;28;20059;-58
2020/12/08 00:38:47;;;;;;;13.52;9.25;;;4.00;99.90;;;;;;5092540;28;20032;-59
2020/12/08 00:41:16;;;;;;;11.45;8.48;;;4.00;99.90;;;;;;5091182;28;20545;-60
2020/12/08 00:43:42;;;;;;;12.40;8.13;;;3.80;99.90;;;;;;5090540;28;20036;-60
2020/12/08 00:46:19;;;;;;;14.43;8.95;;;3.70;99.90;;;;;;5090147;28;20065;-60
2020/12/08 00:48:46;;;;;;;12.23;8.68;;;3.80;99.90;;;;;;5096567;28;20126;-59
2020/12/08 00:51:12;;;;;;;12.43;8.57;;;3.70;99.90;;;;;;5093456;28;20039;-60
2020/12/08 00:53:37;;;;;;;13.20;8.10;;;3.70;99.90;;;;;;5094303;28;20020;-61
2020/12/08 00:56:12;;;;;;;11.13;7.82;;;3.70;99.90;;;;;;5112021;28;20376;-60
2020/12/08 00:58:38;;;;;;;13.35;8.02;;;3.90;99.90;;;;;;5093843;28;20477;-60
2020/12/08 01:01:05;;;;;;;14.57;8.77;;;3.80;99.90;;;;;;5093112;28;20024;-60
2020/12/08 01:03:32;;;;;;;12.75;8.65;;;3.70;99.90;;;;;;5093177;28;20565;-60
2020/12/08 01:05:59;;;;;;;12.57;8.15;;;3.50;99.90;;;;;;5111368;28;20058;-59
2020/12/08 01:08:25;;;;;;;13.27;8.80;;;3.70;99.90;;;;;;5093754;28;20096;-61
2020/12/08 01:10:52;;;;;;;12.70;8.57;;;3.60;99.90;;;;;;5111534;28;20031;-60
2020/12/08 01:13:18;;;;;;;11.73;8.40;;;3.60;99.90;;;;;;5111945;28;20023;-61
2020/12/08 01:15:43;;;;;;;12.13;8.73;;;3.50;99.90;;;;;;5112195;28;20354;-59
2020/12/08 01:18:09;;;;;;;12.60;8.98;;;3.60;99.90;;;;;;5093258;28;20194;-59
2020/12/08 01:20:35;;;;;;;11.90;8.15;;;3.60;99.90;;;;;;5112128;28;20350;-59
2020/12/08 01:23:00;;;;;;;13.20;8.55;;;3.50;99.90;;;;;;5092986;28;20030;-59
2020/12/08 01:25:26;;;;;;;12.88;8.60;;;3.50;99.90;;;;;;5094932;28;20029;-59
2020/12/08 01:27:52;;;;;;;12.75;8.55;;;3.50;99.90;;;;;;5096094;28;20115;-61
2020/12/08 01:30:18;;;;;;;12.77;7.60;;;3.50;99.90;;;;;;5113575;28;20514;-61
2020/12/08 01:32:43;;;;;;;13.07;9.15;;;3.40;99.90;;;;;;5095420;28;20055;-59
2020/12/08 01:35:09;;;;;;;13.00;8.82;;;3.40;99.90;;;;;;5094919;28;20024;-60
2020/12/08 01:37:34;;;;;;;16.77;9.45;;;3.30;99.90;;;;;;5095691;28;20031;-59
2020/12/08 01:40:00;;;;;;;12.95;9.10;;;3.40;99.90;;;;;;5112053;28;20028;-60
2020/12/08 01:42:27;;;;;;;14.02;9.27;;;3.30;99.90;;;;;;5113308;28;20043;-60
2020/12/08 01:44:54;;;;;;;14.48;8.48;;;3.20;99.90;;;;;;5095315;28;20193;-60
2020/12/08 01:47:20;;;;;;;14.27;9.48;;;3.20;99.90;;;;;;5094932;28;20035;-58
2020/12/08 01:49:47;;;;;;;13.95;9.25;;;3.20;99.90;;;;;;5093236;28;20440;-59
2020/12/08 01:52:16;;;;;;;13.35;9.55;;;3.30;99.90;;;;;;5110989;28;20109;-59
2020/12/08 01:54:44;;;;;;;15.63;10.45;;;3.20;99.90;;;;;;5092989;28;20020;-60
2020/12/08 01:57:10;;;;;;;14.90;9.00;;;3.20;99.90;;;;;;5110941;28;20038;-59
2020/12/08 01:59:35;;;;;;;13.68;9.57;;;3.10;99.90;;;;;;5113332;28;20031;-61
2020/12/08 02:02:02;;;;;;;13.40;8.88;;;3.10;99.90;;;;;;5094203;28;20032;-59
2020/12/08 02:04:28;;;;;;;13.70;9.02;;;3.20;99.90;;;;;;5111268;28;20027;-59
2020/12/08 02:06:53;;;;;;;18.02;9.35;;;3.30;99.90;;;;;;5111292;28;20044;-59
2020/12/08 02:09:19;;;;;;;14.10;9.20;;;3.30;99.90;;;;;;5092258;28;20361;-59
2020/12/08 02:11:45;;;;;;;13.63;9.05;;;3.40;99.90;;;;;;5093049;28;20432;-61
2020/12/08 02:14:10;;;;;;;14.90;9.55;;;3.40;99.90;;;;;;5092343;28;20047;-60
2020/12/08 02:16:36;;;;;;;13.93;9.38;;;3.30;99.90;;;;;;5092965;28;20458;-60
2020/12/08 02:19:02;;;;;;;15.38;10.18;;;3.10;99.90;;;;;;5092232;28;20123;-59
2020/12/08 02:21:34;;;;;;;15.27;10.50;;;3.20;99.90;;;;;;5093005;28;20032;-60
2020/12/08 02:24:00;;;;;;;14.40;9.45;;;3.10;99.90;;;;;;5092287;28;20054;-59
2020/12/08 02:26:26;;;;;;;16.52;10.32;;;3.30;99.90;;;;;;5111087;28;20088;-59
2020/12/08 02:28:54;;;;;;;15.10;10.13;;;3.40;99.90;;;;;;5092829;28;20457;-60
2020/12/08 02:31:20;;;;;;;16.52;10.02;;;3.30;99.90;;;;;;5110354;28;20544;-59
2020/12/08 02:33:46;;;;;;;15.13;9.20;;;3.30;99.90;;;;;;5110781;28;20027;-60
2020/12/08 02:36:11;;;;;;;17.27;10.85;;;3.40;99.90;;;;;;5110280;28;20050;-60
2020/12/08 02:38:37;;;;;;;15.48;10.43;;;3.30;99.90;;;;;;5092479;28;20027;-60
2020/12/08 02:41:04;;;;;;;15.40;10.55;;;3.30;99.90;;;;;;5091478;28;20388;-60
2020/12/08 02:43:30;;;;;;;17.38;10.70;;;3.60;99.90;;;;;;5092558;28;20032;-60
2020/12/08 02:45:58;;;;;;;15.68;10.68;;;3.70;99.90;;;;;;5110455;28;20027;-59
2020/12/08 02:48:24;;;;;;;14.45;10.10;;;3.70;99.90;;;;;;5092305;28;20468;-60
2020/12/08 02:50:50;;;;;;;16.77;10.57;;;3.80;99.90;;;;;;5094023;28;20026;-60
2020/12/08 02:53:15;;;;;;;16.38;10.38;;;3.80;99.90;;;;;;5095562;28;20528;-60
2020/12/08 02:55:46;;;;;;;16.40;10.18;;;3.80;99.90;;;;;;5114260;28;20076;-59
2020/12/08 02:58:11;;;;;;;16.75;11.45;;;3.90;99.90;;;;;;5095557;28;20027;-60
2020/12/08 03:00:37;;;;;;;17.30;11.32;;;3.90;99.90;;;;;;5096063;28;20076;-60
2020/12/08 03:03:02;;;;;;;15.98;10.25;;;4.00;99.90;;;;;;5095309;28;20019;-60
2020/12/08 03:05:28;;;;;;;16.98;10.70;;;4.10;99.90;;;;;;5095933;28;20514;-60
2020/12/08 03:07:54;;;;;;;17.92;11.60;;;4.20;99.90;;;;;;5095684;28;20036;-60
2020/12/08 03:10:19;;;;;;;17.80;11.77;;;3.90;99.90;;;;;;5095143;28;20261;-60
2020/12/08 03:12:46;;;;;;;17.58;10.88;;;4.00;99.90;;;;;;5095866;28;20039;-59
2020/12/08 03:15:12;;;;;;;18.70;12.18;;;4.00;99.90;;;;;;5113530;28;20028;-59
2020/12/08 03:17:37;;;;;;;16.73;11.30;;;4.00;99.90;;;;;;5095636;28;20024;-60
2020/12/08 03:20:03;;;;;;;18.08;11.23;;;4.00;99.90;;;;;;5094981;28;20073;-58
2020/12/08 03:22:30;;;;;;;23.30;11.10;;;4.00;99.90;;;;;;5113603;28;20030;-58
2020/12/08 03:24:56;;;;;;;20.15;12.32;;;4.10;99.90;;;;;;5113608;28;20028;-59
2020/12/08 03:27:22;;;;;;;19.17;11.40;;;3.90;99.90;;;;;;5094683;28;20432;-59
2020/12/08 03:29:47;;;;;;;18.23;10.95;;;3.80;99.90;;;;;;5095353;28;20028;-59
2020/12/08 03:32:13;;;;;;;17.83;11.40;;;3.70;99.90;;;;;;5112885;28;20047;-59
2020/12/08 03:34:38;;;;;;;15.75;10.00;;;4.00;99.90;;;;;;5095495;28;20026;-58
2020/12/08 03:37:04;;;;;;;18.35;10.88;;;4.20;99.90;;;;;;5094693;28;20031;-61
2020/12/08 03:39:30;;;;;;;15.25;10.77;;;4.20;99.90;;;;;;5113491;28;20460;-60
2020/12/08 03:41:57;;;;;;;16.40;11.63;;;4.00;99.90;;;;;;5094973;28;20119;-58
2020/12/08 03:44:23;;;;;;;18.08;11.57;;;4.10;99.90;;;;;;5094670;28;20371;-60
2020/12/08 03:46:49;;;;;;;16.80;11.02;;;4.20;99.90;;;;;;5095300;28;20088;-60
2020/12/08 03:49:15;;;;;;;18.52;11.70;;;4.20;99.90;;;;;;5112468;28;20048;-60
2020/12/08 03:51:40;;;;;;;15.43;10.48;;;4.30;99.90;;;;;;5095062;28;20406;-60
2020/12/08 03:54:06;;;;;;;16.13;11.02;;;4.30;99.90;;;;;;5113125;28;20453;-60
2020/12/08 03:56:31;;;;;;;16.48;10.80;;;4.40;99.90;;;;;;5113441;28;20032;-59
2020/12/08 03:58:57;;;;;;;17.58;11.40;;;4.40;99.90;;;;;;5095005;28;20024;-58
2020/12/08 04:01:23;;;;;;;19.17;11.25;;;4.50;99.90;;;;;;5094190;28;20492;-58
2020/12/08 04:03:50;;;;;;;17.30;11.07;;;4.40;99.90;;;;;;5093955;28;20039;-59
2020/12/08 04:06:18;;;;;;;16.23;10.98;;;4.50;99.90;;;;;;5112361;28;20110;-59
2020/12/08 04:08:45;;;;;;;18.27;10.85;;;4.50;99.90;;;;;;5094566;28;20035;-59
2020/12/08 04:11:15;;;;;;;16.75;11.27;;;4.50;99.90;;;;;;5093581;28;20118;-59
2020/12/08 04:13:41;;;;;;;18.10;10.73;;;4.40;99.90;;;;;;5094440;28;20494;-59
2020/12/08 04:16:13;;;;;;;21.83;12.23;;;4.50;99.90;;;;;;5093708;28;20476;-59
2020/12/08 04:18:39;;;;;;;20.95;11.85;;;4.60;99.90;;;;;;5094722;28;20024;-59
2020/12/08 04:21:05;;;;;;;18.17;11.48;;;4.50;99.90;;;;;;5093647;28;20461;-59
2020/12/08 04:23:30;;;;;;;18.92;11.30;;;4.50;99.90;;;;;;5094530;28;20024;-59
2020/12/08 04:25:56;;;;;;;18.35;11.00;;;4.50;99.90;;;;;;5094281;28;20023;-58
2020/12/08 04:28:22;;;;;;;20.83;11.45;;;4.50;99.90;;;;;;5093676;28;20476;-59
2020/12/08 04:30:47;;;;;;;17.90;11.73;;;4.40;99.90;;;;;;5094368;28;20417;-58
2020/12/08 04:33:13;;;;;;;20.27;11.30;;;4.40;99.90;;;;;;5093390;28;20114;-58
2020/12/08 04:35:41;;;;;;;17.80;11.82;;;4.40;99.90;;;;;;5094180;28;20493;-58
2020/12/08 04:38:06;;;;;;;17.50;11.68;;;4.40;99.90;;;;;;5112055;28;20111;-58
2020/12/08 04:40:32;;;;;;;20.73;12.65;;;4.40;99.90;;;;;;5111950;28;20477;-59
2020/12/08 04:42:58;;;;;;;20.73;12.38;;;4.50;99.90;;;;;;5093776;28;20027;-58
2020/12/08 04:45:23;;;;;;;20.33;12.65;;;4.60;99.90;;;;;;5093073;28;20460;-60
2020/12/08 04:47:50;;;;;;;23.23;12.80;;;4.60;99.90;;;;;;5093693;28;20042;-59
2020/12/08 04:50:18;;;;;;;24.75;11.77;;;4.50;99.90;;;;;;5089345;28;20044;-60
2020/12/08 04:52:45;;;;;;;22.38;12.52;;;4.50;99.90;;;;;;5090397;28;20404;-59
2020/12/08 04:55:11;;;;;;;19.42;12.68;;;4.50;99.90;;;;;;5089666;28;20032;-59
2020/12/08 04:57:40;;;;;;;20.52;12.63;;;4.50;99.90;;;;;;5090163;28;20378;-59
2020/12/08 05:00:09;;;;;;;18.33;10.93;;;4.40;99.90;;;;;;5091333;28;20056;-68
2020/12/08 05:02:48;;;;;;;18.73;11.07;;;4.40;99.90;;;;;;5091652;28;20040;-60
2020/12/08 05:05:15;;;;;;;19.05;12.77;;;4.20;99.90;;;;;;5089871;28;20068;-60
2020/12/08 05:07:42;;;;;;;20.05;11.38;;;4.30;99.90;;;;;;5090204;28;20036;-60
2020/12/08 05:10:08;;;;;;;24.65;12.35;;;4.40;99.90;;;;;;5089362;28;20111;-61
2020/12/08 05:12:34;;;;;;;23.20;12.73;;;4.30;99.90;;;;;;5091272;28;20024;-60
2020/12/08 05:14:59;;;;;;;18.92;12.43;;;4.30;99.90;;;;;;5089282;28;20035;-59
2020/12/08 05:17:27;;;;;;;28.92;11.57;;;4.50;99.90;;;;;;5088554;28;20101;-59
2020/12/08 05:20:10;;;;;;;25.60;13.70;;;4.50;99.90;;;;;;5089719;28;20111;-65
2020/12/08 05:22:36;;;;;;;40.78;18.55;;;4.90;99.90;;;;;;5090968;28;20027;-65
2020/12/08 05:25:09;;;;;;;22.35;13.20;;;5.80;99.90;;;;;;5090739;28;20030;-58
2020/12/08 05:27:36;;;;;;;23.15;13.55;;;5.30;99.90;;;;;;5089702;28;20032;-58
2020/12/08 05:30:09;;;;;;;23.95;14.15;;;5.00;99.90;;;;;;5089919;28;20046;-59
2020/12/08 05:32:37;;;;;;;18.55;12.02;;;4.90;99.90;;;;;;5090209;28;20107;-59
2020/12/08 05:35:11;;;;;;;20.10;12.35;;;4.90;99.90;;;;;;5089386;28;20027;-59
2020/12/08 05:37:42;;;;;;;18.75;12.93;;;4.80;99.90;;;;;;5082790;28;20119;-59
2020/12/08 05:40:10;;;;;;;27.40;13.85;;;4.80;99.90;;;;;;5090630;28;20341;-59
2020/12/08 05:42:41;;;;;;;22.63;12.85;;;4.80;99.90;;;;;;5089105;28;20119;-59
2020/12/08 05:45:08;;;;;;;22.08;12.88;;;4.80;99.90;;;;;;5089302;28;20024;-59
2020/12/08 05:47:42;;;;;;;21.48;12.75;;;4.80;99.90;;;;;;5088095;28;20059;-58
2020/12/08 05:50:07;;;;;;;22.00;12.40;;;4.60;99.90;;;;;;5089196;28;20126;-59
2020/12/08 05:52:35;;;;;;;18.33;12.48;;;4.60;99.90;;;;;;5088168;28;20052;-58
2020/12/08 05:55:12;;;;;;;18.67;12.35;;;4.60;99.90;;;;;;5089207;28;20028;-58
2020/12/08 05:57:39;;;;;;;19.27;11.15;;;4.70;99.90;;;;;;5088985;28;20077;-59
2020/12/08 06:00:26;;;;;;;23.95;10.77;;;4.80;99.90;;;;;;5088280;28;20411;-58
2020/12/08 06:02:54;;;;;;;20.48;12.02;;;4.70;99.90;;;;;;5088045;28;20542;-59
2020/12/08 06:05:31;;;;;;;19.20;12.43;;;4.60;99.90;;;;;;5088330;28;20031;-58
2020/12/08 06:07:58;;;;;;;19.58;11.60;;;4.70;99.90;;;;;;5090854;28;20059;-60
2020/12/08 06:10:24;;;;;;;21.77;11.90;;;4.70;99.90;;;;;;5088491;28;20522;-58
2020/12/08 06:13:01;;;;;;;22.70;13.82;;;4.60;99.90;;;;;;5089126;28;20027;-58
2020/12/08 06:15:40;;;;;;;18.35;10.88;;;4.70;99.90;;;;;;5090158;28;20023;-59
2020/12/08 06:18:11;;;;;;;18.92;11.75;;;4.70;99.90;;;;;;5090766;28;20020;-59
2020/12/08 06:20:37;;;;;;;18.45;11.13;;;4.70;99.90;;;;;;5090554;28;20103;-59
2020/12/08 06:23:03;;;;;;;18.80;11.38;;;4.70;99.90;;;;;;5089096;28;20020;-58
2020/12/08 06:25:29;;;;;;;18.27;10.68;;;4.70;99.90;;;;;;5090955;28;20035;-58
2020/12/08 06:27:58;;;;;;;17.23;10.52;;;4.70;99.90;;;;;;5093236;28;20372;-59
2020/12/08 06:30:24;;;;;;;16.13;10.63;;;4.70;99.90;;;;;;5092661;28;20449;-58
2020/12/08 06:32:50;;;;;;;19.23;11.43;;;4.70;99.90;;;;;;5092965;28;20027;-58
2020/12/08 06:35:18;;;;;;;17.88;11.30;;;4.70;99.90;;;;;;5092196;28;20089;-58
2020/12/08 06:37:50;;;;;;;17.98;11.18;;;4.70;99.90;;;;;;5092934;28;20027;-58
2020/12/08 06:40:18;;;;;;;19.67;11.45;;;4.70;99.90;;;;;;5093576;28;20078;-59
2020/12/08 06:42:45;;;;;;;21.55;11.75;;;4.70;99.90;;;;;;5093004;28;20024;-58
2020/12/08 06:45:13;;;;;;;16.95;11.70;;;4.70;99.90;;;;;;5093000;28;20056;-59
2020/12/08 06:47:40;;;;;;;15.48;10.40;;;4.70;99.90;;;;;;5094152;28;20036;-58
2020/12/08 06:50:19;;;;;;;17.52;10.18;;;4.70;99.90;;;;;;5092341;28;20040;-58
2020/12/08 06:52:54;;;;;;;18.45;10.40;;;4.80;99.90;;;;;;5094031;28;20432;-58
2020/12/08 06:55:19;;;;;;;18.73;10.82;;;4.80;99.90;;;;;;5093583;28;20016;-58
2020/12/08 06:57:45;;;;;;;19.38;11.30;;;4.70;99.90;;;;;;5092256;28;20392;-58
2020/12/08 07:00:12;;;;;;;18.05;11.40;;;4.70;99.90;;;;;;5093075;28;20020;-58
2020/12/08 07:02:51;;;;;;;23.55;13.32;;;4.70;99.90;;;;;;5092064;28;20147;-59
2020/12/08 07:05:27;;;;;;;17.33;11.05;;;4.80;99.90;;;;;;5091902;28;20438;-60
2020/12/08 07:07:53;;;;;;;22.67;9.50;;;4.80;99.90;;;;;;5093783;28;20035;-59
2020/12/08 07:10:21;;;;;;;17.83;10.48;;;4.80;99.90;;;;;;5091672;28;20032;-58
2020/12/08 07:12:52;;;;;;;20.73;10.00;;;4.70;99.90;;;;;;5092347;28;20040;-59
2020/12/08 07:15:24;;;;;;;17.02;10.15;;;4.80;99.90;;;;;;5091733;28;20426;-58
2020/12/08 07:18:03;;;;;;;38.53;11.55;;;4.80;99.90;;;;;;5092306;28;20028;-60
2020/12/08 07:20:30;;;;;;;17.98;8.98;;;4.70;99.90;;;;;;5092996;28;20016;-58
2020/12/08 07:22:56;;;;;;;26.02;10.98;;;4.90;99.90;;;;;;5092153;28;20059;-59
2020/12/08 07:25:22;;;;;;;20.00;11.70;;;4.80;99.90;;;;;;5091571;28;20056;-60
2020/12/08 07:27:53;;;;;;;17.98;10.43;;;5.00;99.90;;;;;;5093288;28;20050;-59
2020/12/08 07:30:24;;;;;;;19.95;10.65;;;5.00;99.90;;;;;;5092252;28;20371;-60
2020/12/08 07:32:51;;;;;;;21.75;9.88;;;4.90;99.90;;;;;;5091280;28;20028;-58
2020/12/08 07:35:28;;;;;;;19.02;11.32;;;4.90;99.90;;;;;;5074404;28;20354;-61
2020/12/08 07:37:59;;;;;;;16.55;9.20;;;5.00;99.90;;;;;;5090999;28;20020;-59
2020/12/08 07:40:36;;;;;;;12.50;9.07;;;4.90;99.90;;;;;;5091006;28;20012;-58
2020/12/08 07:43:04;;;;;;;13.57;9.57;;;4.90;99.90;;;;;;5091846;28;20053;-58
2020/12/08 07:45:31;;;;;;;15.85;9.50;;;4.90;99.90;;;;;;5090795;28;20031;-59
2020/12/08 07:47:58;;;;;;;16.02;10.27;;;5.00;99.90;;;;;;5091626;28;20122;-58
2020/12/08 07:50:26;;;;;;;17.25;10.57;;;5.00;99.90;;;;;;5090377;28;20067;-59
2020/12/08 07:53:09;;;;;;;15.88;10.52;;;4.90;99.90;;;;;;5092978;28;20054;-58
2020/12/08 07:55:40;;;;;;;14.10;9.82;;;4.90;99.90;;;;;;5091079;28;20119;-58
2020/12/08 07:58:06;;;;;;;15.75;10.10;;;4.90;99.90;;;;;;5091447;28;20112;-58
2020/12/08 08:00:31;;;;;;;13.55;9.10;;;5.00;99.90;;;;;;5092273;28;20101;-58
2020/12/08 08:02:57;;;;;;;26.70;10.13;;;5.10;99.90;;;;;;5092799;28;20020;-59
2020/12/08 08:05:23;;;;;;;15.98;9.70;;;5.10;99.90;;;;;;5090879;28;20016;-59
2020/12/08 08:07:48;;;;;;;16.75;9.82;;;5.20;99.90;;;;;;5091178;28;20437;-58
2020/12/08 08:10:14;;;;;;;18.55;9.02;;;5.20;99.90;;;;;;5090690;28;20503;-59
2020/12/08 08:12:40;;;;;;;19.08;9.95;;;5.20;99.90;;;;;;5092234;28;20032;-59
2020/12/08 08:15:07;;;;;;;15.48;9.70;;;5.20;99.90;;;;;;5091051;28;20066;-58
2020/12/08 08:17:33;;;;;;;16.73;9.32;;;5.40;99.90;;;;;;5092372;28;20035;-58
2020/12/08 08:19:58;;;;;;;19.50;9.27;;;5.50;99.90;;;;;;5091004;28;20051;-58
2020/12/08 08:22:24;;;;;;;16.77;9.63;;;5.60;99.90;;;;;;5090699;28;20055;-58
2020/12/08 08:24:50;;;;;;;12.48;8.07;;;6.10;99.90;;;;;;5092316;28;20023;-66
2020/12/08 08:27:16;;;;;;;16.70;8.77;;;7.60;99.90;;;;;;5091110;28;20486;-66
2020/12/08 08:29:42;;;;;;;15.60;9.68;;;8.50;99.50;;;;;;5090284;28;20019;-59
2020/12/08 08:32:07;;;;;;;11.30;8.55;;;8.30;97.40;;;;;;5085640;28;20024;-59
2020/12/08 08:34:33;;;;;;;14.93;9.25;;;7.90;97.60;;;;;;5084451;28;20076;-58
2020/12/08 08:36:59;;;;;;;20.58;9.18;;;7.50;98.40;;;;;;5080057;28;20028;-59
2020/12/08 08:39:25;;;;;;;13.68;9.13;;;7.20;99.30;;;;;;5076901;28;20033;-58
2020/12/08 08:41:52;;;;;;;14.65;8.98;;;6.90;99.60;;;;;;5085594;28;20402;-58
2020/12/08 08:44:18;;;;;;;20.38;9.57;;;6.80;99.80;;;;;;5073151;28;20028;-58
2020/12/08 08:46:44;;;;;;;16.25;9.93;;;6.60;99.90;;;;;;5082556;28;20025;-58
2020/12/08 08:49:16;;;;;;;14.73;9.00;;;6.40;99.90;;;;;;5079121;28;20067;-59
2020/12/08 08:51:42;;;;;;;;;;;6.30;99.90;;;;;;5075245;28;20626;-58
2020/12/08 08:54:08;;;;;;;14.32;9.43;;;6.10;99.90;;;;;;5087946;28;19904;-59
2020/12/08 08:56:34;;;;;;;16.15;10.63;;;6.00;99.90;;;;;;5068754;28;20036;-59
2020/12/08 08:59:00;;;;;;;15.35;10.30;;;6.20;99.90;;;;;;5071406;28;20028;-58
2020/12/08 09:01:25;;;;;;;17.27;9.43;;;6.10;99.90;;;;;;5069181;28;20024;-58
2020/12/08 09:03:51;;;;;;;15.95;9.30;;;6.20;99.90;;;;;;5071197;28;20025;-58
2020/12/08 09:06:17;;;;;;;15.75;9.82;;;6.30;99.90;;;;;;5071105;28;20111;-59
2020/12/08 09:08:42;;;;;;;16.33;10.63;;;6.20;99.90;;;;;;5069252;28;20119;-58
2020/12/08 09:11:08;;;;;;;14.48;10.10;;;6.20;99.90;;;;;;5069109;28;20092;-58
2020/12/08 09:13:35;;;;;;;14.77;11.05;;;6.30;99.90;;;;;;5070509;28;20401;-58
2020/12/08 09:16:01;;;;;;;12.80;8.95;;;6.40;99.90;;;;;;5071164;28;20040;-58
2020/12/08 09:18:26;;;;;;;16.63;8.77;;;6.50;99.90;;;;;;5068758;28;20028;-59
2020/12/08 09:20:52;;;;;;;13.40;9.07;;;6.50;99.90;;;;;;5069593;28;20350;-58
2020/12/08 09:23:20;;;;;;;11.73;8.90;;;6.50;99.90;;;;;;5069607;28;20113;-58
2020/12/08 09:25:46;;;;;;;15.00;9.25;;;6.40;99.90;;;;;;5070226;28;20029;-59
2020/12/08 09:28:12;;;;;;;11.43;8.65;;;6.40;99.90;;;;;;5069243;28;20048;-58
2020/12/08 09:30:37;;;;;;;13.25;8.73;;;6.60;99.90;;;;;;5068786;28;20035;-58
2020/12/08 09:33:03;;;;;;;16.52;9.73;;;6.80;99.90;;;;;;5070460;28;20453;-59
2020/12/08 09:35:29;;;;;;;14.52;9.27;;;6.90;99.80;;;;;;5068651;28;20032;-61
2020/12/08 09:37:54;;;;;;;12.98;8.27;;;6.90;99.70;;;;;;5069503;28;20123;-59
2020/12/08 09:40:21;;;;;;;12.52;8.38;;;6.80;99.80;;;;;;5069149;28;20127;-59
2020/12/08 09:42:48;;;;;;;12.45;9.02;;;6.40;99.70;;;;;;5070089;28;20105;-59
2020/12/08 09:45:13;;;;;;;14.20;9.23;;;6.20;99.90;;;;;;5069232;28;20032;-59
2020/12/08 09:47:39;;;;;;;10.93;7.68;;;6.30;99.90;;;;;;5069566;28;20036;-58
2020/12/08 09:50:09;;;;;;;16.35;8.60;;;6.20;99.90;;;;;;5068911;28;20532;-60
2020/12/08 09:52:35;;;;;;;17.20;8.32;;;6.30;99.90;;;;;;5068307;28;20449;-59
2020/12/08 09:55:00;;;;;;;13.63;8.65;;;6.50;99.90;;;;;;5070137;28;20025;-59
2020/12/08 09:57:26;;;;;;;13.73;7.70;;;6.60;99.20;;;;;;5068651;28;20389;-60
2020/12/08 09:59:52;;;;;;;11.45;7.90;;;6.60;99.30;;;;;;5068869;28;20402;-58
2020/12/08 10:02:23;;;;;;;10.65;7.88;;;6.20;99.40;;;;;;5068684;28;20031;-59
2020/12/08 10:04:50;;;;;;;12.02;7.68;;;6.30;99.90;;;;;;5069335;28;20107;-60
2020/12/08 10:07:18;;;;;;;12.45;8.63;;;6.40;99.10;;;;;;5069280;28;20489;-59
2020/12/08 10:09:48;;;;;;;13.90;8.65;;;6.20;99.70;;;;;;5068283;28;20200;-60
2020/12/08 10:12:15;;;;;;;11.98;8.05;;;6.50;99.00;;;;;;5068943;28;20032;-59
2020/12/08 10:14:42;;;;;;;12.07;8.38;;;6.40;99.20;;;;;;5068490;28;20093;-59
2020/12/08 10:17:12;;;;;;;11.02;8.18;;;6.30;99.20;;;;;;5069111;28;20460;-59
2020/12/08 10:19:39;;;;;;;9.75;7.13;;;6.10;99.30;;;;;;5068470;28;20029;-60
2020/12/08 10:22:06;;;;;;;11.63;8.02;;;6.00;99.50;;;;;;5068482;28;20024;-60
2020/12/08 10:24:32;;;;;;;12.55;8.30;;;6.30;99.00;;;;;;5068052;28;20100;-59
2020/12/08 10:26:58;;;;;;;13.18;8.55;;;6.30;99.40;;;;;;5068662;28;20127;-59
2020/12/08 10:29:24;;;;;;;11.13;8.23;;;6.30;99.40;;;;;;5068429;28;20067;-59
2020/12/08 10:31:50;;;;;;;11.77;7.88;;;6.80;98.50;;;;;;5068290;28;20067;-59
2020/12/08 10:34:17;;;;;;;9.63;7.75;;;7.10;97.70;;;;;;5068782;28;20433;-59
2020/12/08 10:36:45;;;;;;;15.35;8.40;;;7.70;97.20;;;;;;5070059;28;20028;-59
2020/12/08 10:39:11;;;;;;;10.20;6.93;;;8.10;96.00;;;;;;5069722;28;20406;-58
2020/12/08 10:41:37;;;;;;;10.40;8.15;;;7.70;96.40;;;;;;5069046;28;20025;-59
2020/12/08 10:44:06;;;;;;;10.27;7.70;;;7.90;96.10;;;;;;5068743;28;20450;-60
2020/12/08 10:46:32;;;;;;;13.75;9.10;;;7.60;96.10;;;;;;5067960;28;20032;-60
2020/12/08 10:48:58;;;;;;;11.73;9.15;;;7.20;97.00;;;;;;5068058;28;20048;-60
2020/12/08 10:51:27;;;;;;;12.40;8.70;;;6.90;97.60;;;;;;5069792;28;20445;-58
2020/12/08 10:53:53;;;;;;;10.80;8.40;;;7.10;97.30;;;;;;5068407;28;20477;-58
2020/12/08 10:56:20;;;;;;;14.18;9.40;;;7.00;97.80;;;;;;5070085;28;20029;-59
2020/12/08 10:58:46;;;;;;;10.95;7.78;;;7.70;97.40;;;;;;5068065;28;20021;-58
2020/12/08 11:01:20;;;;;;;13.85;9.15;;;9.20;95.60;;;;;;5069486;28;20034;-58
2020/12/08 11:03:47;;;;;;;14.30;7.82;;;10.30;92.50;;;;;;5067860;28;20028;-63
2020/12/08 11:06:25;;;;;;;13.32;7.85;;;10.60;91.30;;;;;;5068010;28;20417;-60
2020/12/08 11:08:51;;;;;;;11.73;8.18;;;10.90;92.50;;;;;;5067443;28;20032;-61
2020/12/08 11:11:28;;;;;;;11.57;8.63;;;11.00;92.40;;;;;;5068252;28;20029;-59
2020/12/08 11:13:59;;;;;;;10.82;9.30;;;10.40;90.80;;;;;;5071540;28;20115;-58
2020/12/08 11:16:26;;;;;;;11.50;9.10;;;10.50;91.10;;;;;;5071832;28;20116;-59
2020/12/08 11:18:52;;;;;;;12.40;7.72;;;10.90;90.70;;;;;;5072157;28;20551;-58
2020/12/08 11:21:25;;;;;;;11.23;9.07;;;11.50;90.80;;;;;;5073162;28;20025;-58
2020/12/08 11:23:51;;;;;;;9.32;8.02;;;11.80;86.10;;;;;;5070925;28;20025;-59
2020/12/08 11:26:17;;;;;;;18.20;8.88;;;11.50;86.20;;;;;;5073209;28;20145;-58
2020/12/08 11:28:43;;;;;;;10.48;7.53;;;11.30;86.50;;;;;;5070550;28;20058;-57
2020/12/08 11:31:12;;;;;;;11.73;8.25;;;11.10;87.20;;;;;;5071515;28;20029;-58
2020/12/08 11:33:38;;;;;;;9.48;7.85;;;10.90;88.50;;;;;;5072299;28;20426;-57
2020/12/08 11:36:06;;;;;;;13.77;8.48;;;10.20;90.90;;;;;;5072956;28;20072;-58
2020/12/08 11:38:31;;;;;;;11.68;8.65;;;9.60;91.00;;;;;;5070870;28;20024;-59
2020/12/08 11:40:57;;;;;;;9.23;7.93;;;9.90;91.90;;;;;;5072659;28;20441;-58
2020/12/08 11:43:23;;;;;;;13.52;8.50;;;10.80;90.90;;;;;;5071295;28;20035;-58
2020/12/08 11:45:49;;;;;;;13.88;8.75;;;11.20;89.40;;;;;;5069854;28;20024;-60
2020/12/08 11:48:14;;;;;;;10.95;7.90;;;11.20;87.70;;;;;;5070545;28;20041;-58
2020/12/08 11:50:40;;;;;;;8.32;7.32;;;12.10;87.20;;;;;;5073542;28;20020;-58
2020/12/08 11:53:06;;;;;;;8.82;7.68;;;12.30;83.80;;;;;;5092302;28;20478;-59
2020/12/08 11:55:32;;;;;;;11.85;7.60;;;12.10;81.50;;;;;;5073419;28;20073;-58
2020/12/08 11:57:58;;;;;;;12.07;7.32;;;12.40;82.80;;;;;;5074110;28;20119;-59
2020/12/08 12:00:23;;;;;;;10.00;7.47;;;12.10;83.20;;;;;;5092115;28;20030;-59
2020/12/08 12:02:50;;;;;;;13.45;7.68;;;12.40;81.60;;;;;;5073584;28;20378;-60
2020/12/08 12:05:16;;;;;;;10.30;7.78;;;13.20;82.00;;;;;;5074013;28;20487;-60
2020/12/08 12:07:41;;;;;;;10.60;8.35;;;14.20;73.80;;;;;;5091389;28;20115;-60
2020/12/08 12:10:07;;;;;;;12.68;7.80;;;13.40;74.40;;;;;;5073737;28;20119;-64
2020/12/08 12:12:33;;;;;;;10.77;8.65;;;11.90;82.00;;;;;;5091622;28;20024;-59
2020/12/08 12:14:58;;;;;;;14.95;8.35;;;11.80;84.70;;;;;;5073806;28;20073;-59
2020/12/08 12:17:24;;;;;;;8.48;7.68;;;11.50;86.00;;;;;;5073668;28;20047;-59
2020/12/08 12:19:50;;;;;;;10.85;7.85;;;10.80;88.70;;;;;;5072648;28;20074;-58
2020/12/08 12:22:15;;;;;;;10.85;8.05;;;10.40;90.30;;;;;;5073929;28;20032;-59
2020/12/08 12:24:41;;;;;;;11.13;7.88;;;10.40;90.70;;;;;;5072450;28;20024;-59
2020/12/08 12:27:07;;;;;;;14.20;8.80;;;10.40;91.20;;;;;;5091714;28;20145;-60
2020/12/08 12:29:33;;;;;;;13.00;8.70;;;10.90;91.00;;;;;;5091048;28;20032;-64
2020/12/08 12:31:59;;;;;;;12.65;8.20;;;11.40;88.60;;;;;;5091038;28;20101;-58
2020/12/08 12:34:24;;;;;;;10.20;7.88;;;11.70;88.30;;;;;;5073390;28;20120;-58
2020/12/08 12:36:50;;;;;;;11.80;8.70;;;11.10;90.40;;;;;;5072574;28;20060;-59
2020/12/08 12:39:17;;;;;;;12.43;9.32;;;11.90;85.10;;;;;;5073265;28;20024;-58
2020/12/08 12:41:43;;;;;;;15.15;8.93;;;11.50;85.30;;;;;;5072090;28;20028;-59